createdAt,value
2018-11-10T00:00:30.414Z,25.4
2018-11-10T00:01:20.117Z,25.4
2018-11-10T00:02:10.253Z,25.4
2018-11-10T00:03:01.204Z,25.4
2018-11-10T00:03:51.219Z,25.4
2018-11-10T00:04:41.491Z,25.4
2018-11-10T00:05:30.641Z,25.4
2018-11-10T00:06:21.538Z,25.4
2018-11-10T00:07:10.427Z,25.3
2018-11-10T00:25:23.015Z,24.9
2018-11-10T00:26:13.470Z,24.9
2018-11-10T00:27:02.375Z,24.9
2018-11-10T00:27:53.085Z,24.9
2018-11-10T00:28:42.127Z,24.9
2018-11-10T00:29:32.905Z,24.9
2018-11-10T00:30:23.267Z,24.9
2018-11-10T00:31:13.357Z,24.9
2018-11-10T00:32:02.940Z,24.8
2018-11-10T00:32:53.071Z,24.8
2018-11-10T00:33:42.967Z,24.8
2018-11-10T00:34:33.807Z,24.8
2018-11-10T00:35:23.020Z,24.8
2018-11-10T00:36:13.487Z,24.8
2018-11-10T00:37:03.257Z,24.8
2018-11-10T00:37:53.011Z,24.8
2018-11-10T00:38:43.759Z,24.7
2018-11-10T00:39:33.159Z,24.7
2018-11-10T00:40:23.590Z,24.7
2018-11-10T00:41:13.101Z,24.6
2018-11-10T00:42:03.590Z,24.6
2018-11-10T00:42:54.296Z,24.6
2018-11-10T00:43:43.901Z,24.6
2018-11-10T00:44:33.398Z,24.6
2018-11-10T00:45:23.360Z,24.6
2018-11-10T00:46:13.734Z,24.6
2018-11-10T00:47:03.719Z,24.5
2018-11-10T00:47:53.314Z,24.5
2018-11-10T00:48:45.076Z,24.5
2018-11-10T00:49:34.749Z,24.5
2018-11-10T00:50:24.383Z,24.4
2018-11-10T00:51:14.185Z,24.4
2018-11-10T00:52:04.366Z,24.4
2018-11-10T00:52:55.073Z,24.4
2018-11-10T00:53:44.003Z,24.4
2018-11-10T00:54:33.563Z,24.4
2018-11-10T00:55:25.018Z,24.4
2018-11-10T00:56:14.385Z,24.3
2018-11-10T00:57:04.912Z,24.3
2018-11-10T00:57:54.253Z,24.3
2018-11-10T00:58:46.411Z,24.3
2018-11-10T00:59:34.534Z,24.3
2018-11-10T01:00:25.141Z,24.3
2018-11-10T01:01:15.362Z,24.3
2018-11-10T01:02:05.440Z,24.3
2018-11-10T01:02:54.878Z,24.2
2018-11-10T01:03:45.436Z,24.2
2018-11-10T01:04:35.640Z,24.2
2018-11-10T01:05:25.251Z,24.2
2018-11-10T01:06:15.837Z,24.1
2018-11-10T01:07:05.133Z,24.1
2018-11-10T01:07:55.455Z,24.1
2018-11-10T01:08:45.075Z,24.1
2018-11-10T01:09:36.042Z,24.1
2018-11-10T01:10:25.976Z,24.1
2018-11-10T01:11:16.813Z,24.1
2018-11-10T01:12:05.417Z,24
2018-11-10T01:12:56.740Z,24
2018-11-10T01:13:45.122Z,24
2018-11-10T01:14:35.863Z,23.9
2018-11-10T01:15:26.749Z,23.9
2018-11-10T01:16:16.335Z,23.9
2018-11-10T01:17:05.612Z,23.9
2018-11-10T01:17:55.829Z,23.9
2018-11-10T01:18:46.492Z,23.9
2018-11-10T01:19:36.509Z,23.9
2018-11-10T01:20:26.154Z,23.8
2018-11-10T01:21:16.145Z,23.8
2018-11-10T01:22:06.265Z,23.8
2018-11-10T01:22:57.020Z,23.8
2018-11-10T01:23:46.171Z,23.8
2018-11-10T01:24:38.279Z,23.8
2018-11-10T01:25:27.511Z,23.8
2018-11-10T01:26:16.204Z,23.8
2018-11-10T01:27:08.410Z,23.7
2018-11-10T01:27:58.591Z,23.7
2018-11-10T01:28:47.736Z,23.7
2018-11-10T01:29:37.007Z,23.7
2018-11-10T01:30:28.022Z,23.6
2018-11-10T01:31:16.949Z,23.6
2018-11-10T01:32:07.684Z,23.6
2018-11-10T01:32:57.924Z,23.6
2018-11-10T01:33:46.853Z,23.6
2018-11-10T01:34:37.528Z,23.6
2018-11-10T01:35:27.551Z,23.5
2018-11-10T01:36:17.956Z,23.5
2018-11-10T01:37:07.016Z,23.5
2018-11-10T01:37:58.511Z,23.5
2018-11-10T01:38:47.071Z,23.4
2018-11-10T01:39:37.999Z,23.4
2018-11-10T01:40:27.383Z,23.4
2018-11-10T01:41:18.668Z,23.4
2018-11-10T01:42:08.581Z,23.4
2018-11-10T01:42:57.788Z,23.4
2018-11-10T01:43:47.907Z,23.4
2018-11-10T01:44:38.818Z,23.4
2018-11-10T01:45:28.996Z,23.3
2018-11-10T01:46:18.907Z,23.3
2018-11-10T01:47:08.235Z,23.3
2018-11-10T01:47:57.782Z,23.3
2018-11-10T01:48:48.864Z,23.3
2018-11-10T01:49:38.992Z,23.3
2018-11-10T01:50:28.315Z,23.2
2018-11-10T01:51:18.229Z,23.2
2018-11-10T01:52:08.829Z,23.2
2018-11-10T01:52:59.203Z,23.2
2018-11-10T01:53:49.494Z,23.1
2018-11-10T01:54:39.470Z,23.1
2018-11-10T01:55:29.136Z,23.1
2018-11-10T01:56:19.413Z,23.1
2018-11-10T01:57:09.585Z,23.1
2018-11-10T01:58:00.512Z,23.1
2018-11-10T01:58:49.590Z,23.1
2018-11-10T01:59:39.778Z,23
2018-11-10T02:00:28.780Z,23.1
2018-11-10T02:01:19.945Z,23
2018-11-10T02:02:10.400Z,23
2018-11-10T02:02:59.967Z,22.9
2018-11-10T02:03:50.193Z,22.9
2018-11-10T02:04:39.542Z,22.9
2018-11-10T02:05:29.741Z,22.9
2018-11-10T02:06:19.359Z,22.9
2018-11-10T02:07:09.158Z,22.9
2018-11-10T02:07:59.441Z,22.9
2018-11-10T02:08:49.594Z,22.9
2018-11-10T02:09:40.852Z,22.9
2018-11-10T02:10:28.936Z,22.8
2018-11-10T02:11:19.335Z,22.8
2018-11-10T02:12:10.932Z,22.8
2018-11-10T02:12:59.907Z,22.8
2018-11-10T02:13:49.466Z,22.8
2018-11-10T02:14:40.808Z,22.8
2018-11-10T02:15:30.845Z,22.8
2018-11-10T02:16:20.214Z,22.7
2018-11-10T02:17:09.591Z,22.7
2018-11-10T02:18:00.709Z,22.7
2018-11-10T02:18:50.518Z,22.7
2018-11-10T02:19:40.256Z,22.6
2018-11-10T02:20:30.998Z,22.6
2018-11-10T02:21:20.203Z,22.6
2018-11-10T02:22:11.009Z,22.6
2018-11-10T02:23:00.361Z,22.6
2018-11-10T02:23:51.269Z,22.6
2018-11-10T02:24:41.310Z,22.6
2018-11-10T02:25:30.856Z,22.6
2018-11-10T02:26:20.921Z,22.5
2018-11-10T02:27:09.902Z,22.5
2018-11-10T02:28:01.997Z,22.5
2018-11-10T02:28:50.750Z,22.5
2018-11-10T02:29:41.883Z,22.4
2018-11-10T02:30:31.168Z,22.4
2018-11-10T02:31:22.344Z,22.4
2018-11-10T02:32:11.375Z,22.4
2018-11-10T02:33:02.310Z,22.4
2018-11-10T02:33:52.967Z,22.4
2018-11-10T02:34:41.790Z,22.4
2018-11-10T02:35:31.810Z,22.3
2018-11-10T02:36:21.504Z,22.3
2018-11-10T02:37:12.297Z,22.3
2018-11-10T02:38:02.511Z,22.3
2018-11-10T02:38:54.363Z,22.3
2018-11-10T02:39:41.961Z,22.3
2018-11-10T02:40:31.780Z,22.3
2018-11-10T02:41:22.299Z,22.2
2018-11-10T02:42:12.479Z,22.2
2018-11-10T02:43:02.899Z,22.2
2018-11-10T02:43:52.415Z,22.2
2018-11-10T02:44:42.882Z,22.1
2018-11-10T02:45:32.337Z,22.1
2018-11-10T02:46:21.405Z,22.1
2018-11-10T02:47:12.182Z,22.1
2018-11-10T02:48:02.247Z,22.1
2018-11-10T02:48:53.574Z,22.1
2018-11-10T02:49:43.789Z,22.1
2018-11-10T02:50:33.932Z,22.1
2018-11-10T02:51:22.013Z,22
2018-11-10T02:52:13.957Z,22
2018-11-10T02:53:03.369Z,22
2018-11-10T02:53:53.346Z,22
2018-11-10T02:54:44.758Z,21.9
2018-11-10T02:55:33.417Z,21.9
2018-11-10T02:56:23.619Z,21.9
2018-11-10T02:57:12.941Z,21.9
2018-11-10T02:58:03.043Z,21.9
2018-11-10T02:58:53.698Z,21.9
2018-11-10T02:59:44.789Z,21.9
2018-11-10T03:00:33.716Z,21.9
2018-11-10T03:01:22.631Z,21.8
2018-11-10T03:02:13.626Z,21.9
2018-11-10T03:03:04.743Z,21.8
2018-11-10T03:03:54.695Z,21.8
2018-11-10T03:04:43.844Z,21.8
2018-11-10T03:05:34.701Z,21.8
2018-11-10T03:06:24.783Z,21.8
2018-11-10T03:07:14.246Z,21.8
2018-11-10T03:08:05.083Z,21.7
2018-11-10T03:08:54.890Z,21.7
2018-11-10T03:09:45.252Z,21.7
2018-11-10T03:10:34.062Z,21.7
2018-11-10T03:11:24.075Z,21.6
2018-11-10T03:12:14.269Z,21.6
2018-11-10T03:13:04.298Z,21.6
2018-11-10T03:13:54.812Z,21.6
2018-11-10T03:14:45.891Z,21.6
2018-11-10T03:15:34.860Z,21.6
2018-11-10T03:16:24.969Z,21.6
2018-11-10T03:17:15.191Z,21.6
2018-11-10T03:18:04.780Z,21.5
2018-11-10T03:18:54.972Z,21.6
2018-11-10T03:19:44.695Z,21.5
2018-11-10T03:20:36.022Z,21.5
2018-11-10T03:21:25.274Z,21.5
2018-11-10T03:22:14.288Z,21.4
2018-11-10T03:23:05.877Z,21.4
2018-11-10T03:23:55.430Z,21.4
2018-11-10T03:24:46.082Z,21.4
2018-11-10T03:25:35.905Z,21.4
2018-11-10T03:26:25.644Z,21.4
2018-11-10T03:27:15.952Z,21.4
2018-11-10T03:28:05.193Z,21.4
2018-11-10T03:28:55.161Z,21.4
2018-11-10T03:29:45.604Z,21.3
2018-11-10T03:30:36.054Z,21.3
2018-11-10T03:31:25.848Z,21.3
2018-11-10T03:32:16.787Z,21.3
2018-11-10T03:33:04.876Z,21.3
2018-11-10T03:33:56.228Z,21.3
2018-11-10T03:34:46.079Z,21.3
2018-11-10T03:35:35.109Z,21.3
2018-11-10T03:36:27.493Z,21.2
2018-11-10T03:37:16.513Z,21.2
2018-11-10T03:38:06.581Z,21.2
2018-11-10T03:38:56.699Z,21.2
2018-11-10T03:43:06.409Z,21.1
2018-11-10T03:43:56.539Z,21.1
2018-11-10T03:44:47.556Z,21.1
2018-11-10T03:45:36.319Z,21.1
2018-11-10T03:46:26.646Z,21
2018-11-10T03:47:16.566Z,21
2018-11-10T03:48:06.921Z,21
2018-11-10T03:48:57.469Z,21
2018-11-10T03:49:47.489Z,21
2018-11-10T03:50:36.676Z,20.9
2018-11-10T03:51:27.773Z,20.9
2018-11-10T03:52:17.851Z,20.9
2018-11-10T03:53:07.401Z,20.9
2018-11-10T03:53:58.006Z,20.9
2018-11-10T03:54:46.935Z,20.9
2018-11-10T03:55:37.408Z,20.9
2018-11-10T03:56:27.834Z,20.9
2018-11-10T03:57:18.173Z,20.9
2018-11-10T03:58:08.271Z,20.8
2018-11-10T03:58:57.860Z,20.8
2018-11-10T03:59:47.031Z,20.8
2018-11-10T04:00:37.703Z,20.8
2018-11-10T04:01:27.687Z,20.8
2018-11-10T04:02:18.634Z,20.8
2018-11-10T04:03:08.068Z,20.8
2018-11-10T04:03:57.839Z,20.8
2018-11-10T04:04:47.342Z,20.8
2018-11-10T04:05:38.258Z,20.7
2018-11-10T04:06:28.302Z,20.7
2018-11-10T04:07:18.086Z,20.7
2018-11-10T04:08:09.195Z,20.7
2018-11-10T04:08:58.532Z,20.6
2018-11-10T04:09:49.007Z,20.6
2018-11-10T04:10:39.381Z,20.6
2018-11-10T04:11:29.490Z,20.6
2018-11-10T04:12:19.518Z,20.6
2018-11-10T04:13:09.187Z,20.6
2018-11-10T04:13:58.883Z,20.6
2018-11-10T04:14:48.870Z,20.5
2018-11-10T04:15:39.774Z,20.6
2018-11-10T04:16:29.384Z,20.6
2018-11-10T04:17:19.391Z,20.5
2018-11-10T04:18:08.534Z,20.5
2018-11-10T04:18:59.685Z,20.5
2018-11-10T04:19:50.274Z,20.4
2018-11-10T04:20:39.516Z,20.5
2018-11-10T04:21:29.641Z,20.4
2018-11-10T04:22:18.878Z,20.4
2018-11-10T04:23:08.481Z,20.4
2018-11-10T04:23:59.631Z,20.4
2018-11-10T04:24:49.831Z,20.4
2018-11-10T04:25:41.281Z,20.4
2018-11-10T04:26:29.086Z,20.4
2018-11-10T04:27:19.707Z,20.4
2018-11-10T04:28:10.421Z,20.4
2018-11-10T04:29:00.229Z,20.3
2018-11-10T04:29:49.993Z,20.3
2018-11-10T04:30:40.111Z,20.3
2018-11-10T04:31:29.632Z,20.3
2018-11-10T04:32:20.373Z,20.3
2018-11-10T04:33:10.626Z,20.3
2018-11-10T04:33:59.685Z,20.3
2018-11-10T04:34:50.248Z,20.3
2018-11-10T04:35:41.509Z,20.3
2018-11-10T04:36:29.838Z,20.2
2018-11-10T04:54:37.558Z,19.9
2018-11-10T04:55:27.625Z,19.9
2018-11-10T04:56:17.804Z,19.9
2018-11-10T04:57:07.259Z,19.9
2018-11-10T04:57:58.032Z,19.9
2018-11-10T04:58:47.867Z,19.9
2018-11-10T04:59:37.635Z,19.9
2018-11-10T05:00:27.869Z,19.9
2018-11-10T05:01:17.964Z,19.9
2018-11-10T05:02:07.911Z,19.8
2018-11-10T05:02:58.839Z,19.8
2018-11-10T05:03:48.421Z,19.8
2018-11-10T05:04:37.601Z,19.8
2018-11-10T05:05:28.139Z,19.8
2018-11-10T05:06:18.525Z,19.8
2018-11-10T05:07:08.246Z,19.8
2018-11-10T05:07:58.708Z,19.8
2018-11-10T05:08:48.466Z,19.7
2018-11-10T05:09:38.691Z,19.7
2018-11-10T05:10:29.091Z,19.7
2018-11-10T05:11:17.978Z,19.7
2018-11-10T05:12:09.461Z,19.7
2018-11-10T05:12:59.171Z,19.7
2018-11-10T05:13:48.713Z,19.6
2018-11-10T05:14:39.010Z,19.6
2018-11-10T05:15:30.353Z,19.6
2018-11-10T05:16:18.939Z,19.6
2018-11-10T05:17:08.198Z,19.6
2018-11-10T05:17:59.718Z,19.6
2018-11-10T05:18:49.110Z,19.6
2018-11-10T05:19:39.515Z,19.6
2018-11-10T05:20:29.184Z,19.6
2018-11-10T05:21:19.328Z,19.6
2018-11-10T05:22:09.143Z,19.5
2018-11-10T05:22:59.365Z,19.6
2018-11-10T05:23:50.840Z,19.5
2018-11-10T05:24:39.758Z,19.5
2018-11-10T05:25:30.164Z,19.5
2018-11-10T05:26:19.751Z,19.4
2018-11-10T05:27:09.610Z,19.4
2018-11-10T05:27:59.274Z,19.4
2018-11-10T05:28:51.215Z,19.4
2018-11-10T05:29:39.485Z,19.4
2018-11-10T05:30:30.147Z,19.4
2018-11-10T05:31:23.453Z,19.4
2018-11-10T05:32:10.252Z,19.4
2018-11-10T05:32:59.615Z,19.4
2018-11-10T05:33:51.017Z,19.4
2018-11-10T05:34:39.442Z,19.4
2018-11-10T05:35:31.957Z,19.3
2018-11-10T05:36:21.112Z,19.4
2018-11-10T05:37:11.387Z,19.3
2018-11-10T05:38:01.592Z,19.3
2018-11-10T05:38:51.097Z,19.3
2018-11-10T05:39:41.574Z,19.3
2018-11-10T05:40:31.022Z,19.3
2018-11-10T05:41:20.412Z,19.3
2018-11-10T05:42:10.949Z,19.3
2018-11-10T05:43:01.159Z,19.3
2018-11-10T05:43:50.215Z,19.3
2018-11-10T05:44:41.649Z,19.2
2018-11-10T05:45:31.353Z,19.2
2018-11-10T05:46:20.869Z,19.2
2018-11-10T05:47:10.715Z,19.2
2018-11-10T05:48:01.401Z,19.2
2018-11-10T05:48:51.014Z,19.2
2018-11-10T05:49:41.529Z,19.2
2018-11-10T05:50:31.847Z,19.1
2018-11-10T05:51:22.029Z,19.1
2018-11-10T05:52:12.411Z,19.1
2018-11-10T05:53:02.229Z,19.1
2018-11-10T05:53:51.019Z,19.1
2018-11-10T05:54:41.821Z,19.1
2018-11-10T05:55:31.828Z,19.1
2018-11-10T05:56:22.539Z,19.1
2018-11-10T05:57:12.693Z,19.1
2018-11-10T05:58:01.775Z,19.1
2018-11-10T05:58:53.401Z,19.1
2018-11-10T05:59:42.336Z,19
2018-11-10T06:00:32.903Z,19
2018-11-10T06:01:22.420Z,19
2018-11-10T06:02:12.901Z,18.9
2018-11-10T06:03:02.827Z,19
2018-11-10T06:03:53.003Z,18.9
2018-11-10T06:04:41.948Z,18.9
2018-11-10T06:05:31.812Z,18.9
2018-11-10T06:06:23.960Z,18.9
2018-11-10T06:07:12.385Z,18.9
2018-11-10T06:08:02.209Z,18.9
2018-11-10T06:08:51.939Z,18.8
2018-11-10T06:09:45.079Z,18.8
2018-11-10T06:10:36.140Z,18.8
2018-11-10T06:11:22.758Z,18.8
2018-11-10T06:12:12.058Z,18.8
2018-11-10T06:13:03.227Z,18.8
2018-11-10T06:13:53.427Z,18.8
2018-11-10T06:14:42.898Z,18.8
2018-11-10T06:16:22.680Z,18.6
2018-11-10T06:17:13.704Z,18.6
2018-11-10T06:18:02.360Z,18.5
2018-11-10T06:18:55.382Z,18.5
2018-11-10T06:19:42.995Z,18.5
2018-11-10T06:20:33.848Z,18.5
2018-11-10T06:21:23.944Z,18.4
2018-11-10T06:22:14.249Z,18.5
2018-11-10T06:23:03.007Z,18.4
2018-11-10T06:23:54.017Z,18.4
2018-11-10T06:24:45.284Z,18.4
2018-11-10T06:25:34.193Z,18.4
2018-11-10T06:26:23.969Z,18.4
2018-11-10T06:27:14.637Z,18.4
2018-11-10T06:28:04.159Z,18.4
2018-11-10T06:28:56.114Z,18.4
2018-11-10T06:29:43.704Z,18.4
2018-11-10T06:30:35.077Z,18.4
2018-11-10T06:31:24.189Z,18.4
2018-11-10T06:32:15.211Z,18.4
2018-11-10T06:33:03.884Z,18.4
2018-11-10T06:33:55.439Z,18.3
2018-11-10T06:34:44.526Z,18.3
2018-11-10T06:35:34.698Z,18.3
2018-11-10T06:36:25.560Z,18.3
2018-11-10T06:37:15.303Z,18.3
2018-11-10T06:38:04.689Z,18.3
2018-11-10T06:38:55.924Z,18.3
2018-11-10T06:39:45.623Z,18.3
2018-11-10T06:40:35.598Z,18.3
2018-11-10T06:41:26.232Z,18.2
2018-11-10T06:42:16.101Z,18.2
2018-11-10T06:43:06.123Z,18.2
2018-11-10T06:43:54.928Z,18.2
2018-11-10T06:44:45.271Z,18.2
2018-11-10T06:45:36.191Z,18.2
2018-11-10T06:46:25.890Z,18.1
2018-11-10T06:47:17.357Z,18.1
2018-11-10T06:48:06.148Z,18.1
2018-11-10T06:48:54.034Z,18.1
2018-11-10T06:49:46.128Z,18.1
2018-11-10T06:50:36.562Z,18.1
2018-11-10T06:51:26.312Z,18.1
2018-11-10T06:52:16.280Z,18.1
2018-11-10T06:53:08.058Z,18.1
2018-11-10T06:53:56.195Z,18
2018-11-10T06:54:46.605Z,18
2018-11-10T06:55:36.135Z,18
2018-11-10T06:56:25.603Z,18
2018-11-10T06:57:16.913Z,18
2018-11-10T06:58:05.920Z,17.9
2018-11-10T06:58:56.970Z,17.9
2018-11-10T06:59:47.224Z,17.9
2018-11-10T07:00:35.905Z,17.9
2018-11-10T07:01:25.037Z,17.9
2018-11-10T07:02:15.454Z,17.9
2018-11-10T07:03:06.307Z,17.9
2018-11-10T07:03:56.973Z,17.9
2018-11-10T07:04:46.277Z,17.9
2018-11-10T07:05:37.109Z,17.9
2018-11-10T07:06:26.494Z,17.9
2018-11-10T07:07:16.701Z,17.8
2018-11-10T07:08:08.872Z,17.8
2018-11-10T07:08:57.022Z,17.9
2018-11-10T07:09:47.869Z,17.9
2018-11-10T07:10:36.614Z,17.8
2018-11-10T07:11:27.276Z,17.8
2018-11-10T07:12:17.019Z,17.8
2018-11-10T07:13:08.514Z,17.8
2018-11-10T07:13:58.164Z,17.8
2018-11-10T07:14:46.764Z,17.8
2018-11-10T07:15:38.044Z,17.8
2018-11-10T07:16:27.962Z,17.8
2018-11-10T07:17:18.715Z,17.8
2018-11-10T07:18:08.973Z,17.8
2018-11-10T07:18:59.174Z,17.8
2018-11-10T07:19:47.617Z,17.8
2018-11-10T07:20:38.083Z,17.8
2018-11-10T07:21:27.879Z,17.8
2018-11-10T07:22:17.432Z,17.8
2018-11-10T07:23:07.879Z,17.8
2018-11-10T07:23:58.428Z,17.8
2018-11-10T07:24:48.887Z,17.7
2018-11-10T07:25:39.117Z,17.7
2018-11-10T07:26:28.798Z,17.7
2018-11-10T07:27:18.061Z,17.7
2018-11-10T07:28:08.450Z,17.7
2018-11-10T07:28:58.230Z,17.7
2018-11-10T07:29:48.325Z,17.7
2018-11-10T07:30:38.397Z,17.7
2018-11-10T07:31:28.884Z,17.7
2018-11-10T07:32:17.855Z,17.7
2018-11-10T07:33:08.275Z,17.6
2018-11-10T07:33:57.981Z,17.6
2018-11-10T07:34:47.951Z,17.6
2018-11-10T07:35:38.513Z,17.6
2018-11-10T07:36:27.897Z,17.6
2018-11-10T07:37:18.798Z,17.6
2018-11-10T07:38:07.884Z,17.6
2018-11-10T07:38:59.579Z,17.6
2018-11-10T07:39:48.819Z,17.6
2018-11-10T07:40:39.746Z,17.6
2018-11-10T07:41:29.604Z,17.6
2018-11-10T07:42:19.262Z,17.6
2018-11-10T07:43:10.570Z,17.6
2018-11-10T07:43:59.351Z,17.6
2018-11-10T07:44:49.348Z,17.6
2018-11-10T07:45:39.764Z,17.6
2018-11-10T07:46:29.250Z,17.6
2018-11-10T07:47:19.870Z,17.6
2018-11-10T07:48:09.171Z,17.5
2018-11-10T07:48:59.581Z,17.6
2018-11-10T07:49:50.570Z,17.5
2018-11-10T07:50:39.802Z,17.5
2018-11-10T07:51:31.538Z,17.5
2018-11-10T07:52:19.048Z,17.5
2018-11-10T07:53:10.351Z,17.5
2018-11-10T07:54:00.901Z,17.5
2018-11-10T07:54:49.468Z,17.5
2018-11-10T07:55:41.067Z,17.5
2018-11-10T07:56:29.861Z,17.4
2018-11-10T07:57:20.787Z,17.4
2018-11-10T07:58:10.668Z,17.5
2018-11-10T07:59:00.855Z,17.4
2018-11-10T07:59:49.955Z,17.4
2018-11-10T08:00:40.743Z,17.4
2018-11-10T08:01:30.804Z,17.4
2018-11-10T08:02:20.785Z,17.4
2018-11-10T08:03:11.273Z,17.4
2018-11-10T08:04:01.568Z,17.4
2018-11-10T08:04:50.915Z,17.4
2018-11-10T08:05:42.453Z,17.4
2018-11-10T08:06:30.274Z,17.4
2018-11-10T08:07:20.795Z,17.4
2018-11-10T08:08:11.588Z,17.4
2018-11-10T08:09:01.125Z,17.4
2018-11-10T08:09:52.591Z,17.4
2018-11-10T08:10:42.562Z,17.4
2018-11-10T08:11:30.809Z,17.4
2018-11-10T08:12:21.577Z,17.4
2018-11-10T08:13:11.962Z,17.4
2018-11-10T08:14:02.080Z,17.3
2018-11-10T08:14:52.237Z,17.3
2018-11-10T08:15:41.401Z,17.4
2018-11-10T08:16:31.205Z,17.4
2018-11-10T08:17:21.502Z,17.3
2018-11-10T08:18:11.577Z,17.3
2018-11-10T08:19:01.497Z,17.3
2018-11-10T08:19:52.984Z,17.3
2018-11-10T08:20:42.966Z,17.3
2018-11-10T08:21:32.597Z,17.3
2018-11-10T08:22:22.534Z,17.3
2018-11-10T08:23:12.334Z,17.3
2018-11-10T08:24:02.987Z,17.3
2018-11-10T08:24:53.807Z,17.3
2018-11-10T08:25:42.337Z,17.3
2018-11-10T08:26:31.685Z,17.3
2018-11-10T08:27:22.384Z,17.3
2018-11-10T08:28:12.529Z,17.3
2018-11-10T08:29:02.863Z,17.3
2018-11-10T08:29:53.176Z,17.3
2018-11-10T08:30:42.914Z,17.3
2018-11-10T08:31:33.094Z,17.3
2018-11-10T08:32:23.201Z,17.3
2018-11-10T08:33:11.168Z,17.3
2018-11-10T08:34:02.051Z,17.3
2018-11-10T08:34:52.713Z,17.3
2018-11-10T08:35:42.970Z,17.3
2018-11-10T08:36:31.456Z,17.3
2018-11-10T08:37:23.126Z,17.3
2018-11-10T08:38:11.845Z,17.3
2018-11-10T08:39:03.438Z,17.2
2018-11-10T08:39:52.884Z,17.2
2018-11-10T08:40:42.823Z,17.2
2018-11-10T08:41:33.071Z,17.2
2018-11-10T08:42:24.170Z,17.2
2018-11-10T08:43:14.431Z,17.2
2018-11-10T08:44:03.060Z,17.2
2018-11-10T08:44:52.936Z,17.2
2018-11-10T08:45:44.565Z,17.2
2018-11-10T08:46:34.306Z,17.2
2018-11-10T08:47:23.459Z,17.2
2018-11-10T08:48:12.645Z,17.2
2018-11-10T08:49:04.629Z,17.2
2018-11-10T08:49:53.590Z,17.1
2018-11-10T08:50:43.699Z,17.2
2018-11-10T08:51:32.713Z,17.1
2018-11-10T08:52:23.535Z,17.1
2018-11-10T09:09:03.729Z,17.1
2018-11-10T09:09:54.133Z,17.1
2018-11-10T09:10:44.078Z,17.1
2018-11-10T09:11:32.394Z,17.1
2018-11-10T09:12:24.534Z,17.1
2018-11-10T09:13:14.081Z,17.1
2018-11-10T09:14:03.213Z,17.1
2018-11-10T09:14:55.027Z,17.1
2018-11-10T09:15:43.858Z,17.1
2018-11-10T09:16:34.195Z,17.1
2018-11-10T09:17:24.082Z,17.1
2018-11-10T09:18:13.998Z,17.1
2018-11-10T09:19:02.670Z,17.1
2018-11-10T09:19:54.768Z,17.1
2018-11-10T09:20:44.383Z,17.1
2018-11-10T09:21:35.750Z,17.1
2018-11-10T09:23:13.385Z,17.1
2018-11-10T09:24:55.090Z,17.1
2018-11-10T09:37:26.299Z,16.9
2018-11-10T09:39:55.692Z,16.9
2018-11-10T09:40:45.813Z,16.9
2018-11-10T09:41:35.975Z,16.9
2018-11-10T09:42:30.057Z,16.9
2018-11-10T09:43:15.561Z,16.9
2018-11-10T09:44:06.439Z,16.9
2018-11-10T09:44:56.317Z,16.9
2018-11-10T09:45:45.292Z,16.9
2018-11-10T09:46:37.500Z,16.9
2018-11-10T09:47:24.794Z,16.9
2018-11-10T09:48:15.399Z,16.9
2018-11-10T09:49:06.742Z,16.9
2018-11-10T09:49:57.516Z,16.9
2018-11-10T09:50:46.461Z,16.9
2018-11-10T09:51:36.454Z,16.9
2018-11-10T09:52:27.083Z,16.9
2018-11-10T09:53:16.841Z,16.9
2018-11-10T09:54:06.199Z,16.9
2018-11-10T09:54:57.233Z,16.9
2018-11-10T09:55:46.498Z,16.9
2018-11-10T09:56:36.879Z,16.9
2018-11-10T09:57:27.386Z,16.9
2018-11-10T09:58:16.716Z,16.9
2018-11-10T09:59:07.032Z,16.9
2018-11-10T09:59:57.624Z,16.9
2018-11-10T10:00:46.599Z,16.9
2018-11-10T10:01:41.449Z,16.9
2018-11-10T10:02:33.740Z,16.9
2018-11-10T10:03:15.813Z,16.9
2018-11-10T10:04:07.415Z,16.9
2018-11-10T10:04:56.533Z,16.9
2018-11-10T10:05:46.743Z,16.9
2018-11-10T10:06:37.575Z,16.9
2018-11-10T10:07:27.421Z,16.9
2018-11-10T10:08:15.809Z,16.9
2018-11-10T10:09:08.226Z,16.9
2018-11-10T10:09:58.741Z,16.9
2018-11-10T10:10:47.412Z,16.9
2018-11-10T10:11:38.335Z,16.9
2018-11-10T10:12:27.153Z,16.9
2018-11-10T10:13:18.920Z,16.9
2018-11-10T10:14:07.169Z,16.9
2018-11-10T10:14:57.382Z,16.9
2018-11-10T10:15:47.818Z,16.8
2018-11-10T10:16:39.814Z,16.9
2018-11-10T10:17:27.140Z,16.9
2018-11-10T10:18:17.665Z,16.9
2018-11-10T10:19:08.182Z,16.8
2018-11-10T10:19:58.317Z,16.8
2018-11-10T10:20:48.135Z,16.9
2018-11-10T10:21:39.316Z,16.8
2018-11-10T10:22:29.345Z,16.8
2018-11-10T10:23:16.102Z,16.9
2018-11-10T10:24:07.712Z,16.8
2018-11-10T10:24:57.312Z,16.8
2018-11-10T10:25:49.237Z,16.9
2018-11-10T10:26:39.506Z,16.8
2018-11-10T10:27:28.349Z,16.8
2018-11-10T10:28:18.776Z,16.8
2018-11-10T10:29:12.422Z,16.8
2018-11-10T10:29:59.943Z,16.8
2018-11-10T10:30:48.427Z,16.8
2018-11-10T10:31:39.146Z,16.8
2018-11-10T10:32:27.919Z,16.8
2018-11-10T10:33:19.041Z,16.8
2018-11-10T10:34:10.577Z,16.8
2018-11-10T10:35:01.896Z,16.8
2018-11-10T10:35:50.016Z,16.8
2018-11-10T10:36:38.775Z,16.8
2018-11-10T10:37:29.548Z,16.8
2018-11-10T10:38:19.152Z,16.8
2018-11-10T10:39:09.903Z,16.8
2018-11-10T10:39:59.976Z,16.8
2018-11-10T10:40:50.508Z,16.8
2018-11-10T10:41:39.998Z,16.8
2018-11-10T10:42:30.436Z,16.8
2018-11-10T10:43:20.658Z,16.8
2018-11-10T10:44:09.805Z,16.8
2018-11-10T10:45:00.056Z,16.8
2018-11-10T10:45:51.341Z,16.8
2018-11-10T10:46:39.705Z,16.8
2018-11-10T10:47:30.772Z,16.8
2018-11-10T10:48:19.401Z,16.8
2018-11-10T10:49:10.741Z,16.8
2018-11-10T10:50:01.277Z,16.8
2018-11-10T10:50:51.083Z,16.8
2018-11-10T10:51:40.495Z,16.8
2018-11-10T10:52:31.308Z,16.8
2018-11-10T10:53:20.741Z,16.8
2018-11-10T10:54:11.433Z,16.8
2018-11-10T10:55:01.551Z,16.8
2018-11-10T10:55:50.927Z,16.8
2018-11-10T10:56:42.576Z,16.8
2018-11-10T10:57:31.035Z,16.8
2018-11-10T10:58:21.551Z,16.8
2018-11-10T10:59:10.918Z,16.8
2018-11-10T11:00:00.833Z,16.8
2018-11-10T11:00:50.150Z,16.8
2018-11-10T11:01:42.131Z,16.8
2018-11-10T11:02:30.784Z,16.8
2018-11-10T11:03:22.432Z,16.8
2018-11-10T11:04:12.037Z,16.8
2018-11-10T11:05:01.072Z,16.8
2018-11-10T11:05:51.359Z,16.8
2018-11-10T11:06:42.425Z,16.8
2018-11-10T11:07:32.040Z,16.8
2018-11-10T11:08:22.012Z,16.8
2018-11-10T11:09:12.415Z,16.8
2018-11-10T11:10:02.397Z,16.8
2018-11-10T11:10:51.694Z,16.8
2018-11-10T11:11:41.287Z,16.8
2018-11-10T11:12:32.239Z,16.8
2018-11-10T11:13:22.417Z,16.8
2018-11-10T11:14:11.126Z,16.8
2018-11-10T11:15:03.407Z,16.8
2018-11-10T11:15:54.628Z,16.8
2018-11-10T11:16:42.324Z,16.8
2018-11-10T11:17:31.770Z,16.8
2018-11-10T11:18:21.406Z,16.8
2018-11-10T11:19:11.294Z,16.8
2018-11-10T11:20:02.626Z,16.8
2018-11-10T11:20:52.371Z,16.8
2018-11-10T11:21:43.000Z,16.8
2018-11-10T11:22:32.091Z,16.8
2018-11-10T11:23:23.389Z,16.8
2018-11-10T11:24:12.012Z,16.8
2018-11-10T11:25:01.893Z,16.8
2018-11-10T11:25:51.465Z,16.8
2018-11-10T11:26:42.336Z,16.8
2018-11-10T11:27:33.222Z,16.8
2018-11-10T11:28:22.868Z,16.8
2018-11-10T11:29:13.307Z,16.8
2018-11-10T11:30:03.593Z,16.8
2018-11-10T11:30:52.956Z,16.8
2018-11-10T11:31:42.625Z,16.8
2018-11-10T11:32:33.126Z,16.8
2018-11-10T11:33:22.718Z,16.8
2018-11-10T11:34:13.279Z,16.8
2018-11-10T11:35:03.591Z,16.8
2018-11-10T11:35:53.064Z,16.8
2018-11-10T11:36:43.425Z,16.8
2018-11-10T11:37:33.766Z,16.8
2018-11-10T11:38:23.861Z,16.8
2018-11-10T11:39:13.260Z,16.8
2018-11-10T11:40:02.409Z,16.8
2018-11-10T11:40:53.826Z,16.8
2018-11-10T11:41:45.102Z,16.8
2018-11-10T11:42:34.754Z,16.8
2018-11-10T11:43:22.728Z,16.8
2018-11-10T11:44:12.827Z,16.8
2018-11-10T11:45:03.630Z,16.7
2018-11-10T11:45:53.485Z,16.8
2018-11-10T11:46:45.145Z,16.8
2018-11-10T11:47:35.164Z,16.8
2018-11-10T11:48:24.747Z,16.8
2018-11-10T11:49:14.640Z,16.8
2018-11-10T11:50:04.254Z,16.8
2018-11-10T11:50:54.192Z,16.8
2018-11-10T11:51:44.012Z,16.8
2018-11-10T11:52:35.607Z,16.8
2018-11-10T11:53:26.077Z,16.7
2018-11-10T11:54:13.921Z,16.8
2018-11-10T11:55:04.540Z,16.8
2018-11-10T11:55:54.210Z,16.8
2018-11-10T11:56:45.107Z,16.8
2018-11-10T11:57:36.424Z,16.8
2018-11-10T11:58:28.283Z,16.7
2018-11-10T11:59:16.568Z,16.8
2018-11-10T12:00:05.580Z,16.7
2018-11-10T12:00:56.242Z,16.8
2018-11-10T12:01:45.273Z,16.8
2018-11-10T12:02:35.669Z,16.8
2018-11-10T12:03:25.189Z,16.8
2018-11-10T12:04:16.429Z,16.8
2018-11-10T12:05:05.207Z,16.8
2018-11-10T12:05:55.461Z,16.8
2018-11-10T12:06:45.606Z,16.7
2018-11-10T12:07:36.601Z,16.8
2018-11-10T12:08:25.664Z,16.8
2018-11-10T12:09:16.166Z,16.8
2018-11-10T12:10:06.981Z,16.8
2018-11-10T12:10:56.581Z,16.8
2018-11-10T12:11:45.903Z,16.8
2018-11-10T12:12:37.485Z,16.8
2018-11-10T12:13:26.807Z,16.8
2018-11-10T12:14:15.749Z,16.8
2018-11-10T12:15:06.575Z,16.8
2018-11-10T12:15:56.942Z,16.7
2018-11-10T12:16:48.121Z,16.8
2018-11-10T12:17:36.744Z,16.8